sensor_id;sensor_type;location;lat;lon;timestamp;pressure;altitude;pressure_sealevel;temperature;humidity
29941;BME280;16801;53.562;10.038;2022-09-09T00:03:02;100785.16;;;15.42;92.66
29941;BME280;16801;53.562;10.038;2022-09-09T00:06:31;100772.63;;;15.57;92.31
29941;BME280;16801;53.562;10.038;2022-09-09T00:10:03;100770.59;;;15.51;91.95
29941;BME280;16801;53.562;10.038;2022-09-09T00:13:34;100774.97;;;15.36;93.11
29941;BME280;16801;53.562;10.038;2022-09-09T00:17:01;100776.69;;;15.37;93.32
29941;BME280;16801;53.562;10.038;2022-09-09T00:20:29;100773.28;;;15.27;93.43
29941;BME280;16801;53.562;10.038;2022-09-09T00:23:54;100782.63;;;15.48;92.93
29941;BME280;16801;53.562;10.038;2022-09-09T00:27:21;100780.28;;;15.45;92.80
29941;BME280;16801;53.562;10.038;2022-09-09T00:30:46;100777.50;;;15.29;93.43
29941;BME280;16801;53.562;10.038;2022-09-09T00:34:11;100778.84;;;15.25;93.52
29941;BME280;16801;53.562;10.038;2022-09-09T00:37:33;100780.38;;;15.19;94.18
29941;BME280;16801;53.562;10.038;2022-09-09T00:40:58;100780.56;;;15.26;93.24
29941;BME280;16801;53.562;10.038;2022-09-09T00:44:30;100784.81;;;15.29;93.18
29941;BME280;16801;53.562;10.038;2022-09-09T00:47:54;100786.13;;;15.16;93.85
29941;BME280;16801;53.562;10.038;2022-09-09T00:51:25;100776.31;;;15.07;94.56
29941;BME280;16801;53.562;10.038;2022-09-09T00:54:57;100776.13;;;15.09;94.14
29941;BME280;16801;53.562;10.038;2022-09-09T00:58:24;100773.09;;;15.20;93.80
29941;BME280;16801;53.562;10.038;2022-09-09T01:01:48;100780.88;;;15.15;93.71
29941;BME280;16801;53.562;10.038;2022-09-09T01:05:13;100772.22;;;15.03;93.75
29941;BME280;16801;53.562;10.038;2022-09-09T01:08:48;100771.88;;;14.98;93.82
29941;BME280;16801;53.562;10.038;2022-09-09T01:12:16;100785.63;;;14.97;94.50
29941;BME280;16801;53.562;10.038;2022-09-09T01:15:41;100772.03;;;14.81;94.59
29941;BME280;16801;53.562;10.038;2022-09-09T01:19:07;100771.34;;;14.87;94.65
29941;BME280;16801;53.562;10.038;2022-09-09T01:22:43;100770.69;;;14.93;94.26
29941;BME280;16801;53.562;10.038;2022-09-09T01:26:14;100783.75;;;14.89;94.24
29941;BME280;16801;53.562;10.038;2022-09-09T01:29:37;100789.31;;;14.80;94.62
29941;BME280;16801;53.562;10.038;2022-09-09T01:32:58;100773.69;;;14.74;94.93
29941;BME280;16801;53.562;10.038;2022-09-09T01:36:31;100781.50;;;14.77;94.36
29941;BME280;16801;53.562;10.038;2022-09-09T01:39:55;100785.41;;;14.82;94.58
29941;BME280;16801;53.562;10.038;2022-09-09T01:43:18;100774.56;;;14.82;94.00
29941;BME280;16801;53.562;10.038;2022-09-09T01:46:40;100772.38;;;15.02;93.46
29941;BME280;16801;53.562;10.038;2022-09-09T01:50:10;100774.75;;;14.89;93.96
29941;BME280;16801;53.562;10.038;2022-09-09T01:53:33;100777.09;;;14.84;93.69
29941;BME280;16801;53.562;10.038;2022-09-09T01:57:01;100773.72;;;14.90;93.52
29941;BME280;16801;53.562;10.038;2022-09-09T02:00:29;100764.41;;;14.92;93.12
29941;BME280;16801;53.562;10.038;2022-09-09T02:03:56;100768.16;;;14.91;93.33
29941;BME280;16801;53.562;10.038;2022-09-09T02:07:35;100762.84;;;14.90;93.37
29941;BME280;16801;53.562;10.038;2022-09-09T02:11:05;100762.81;;;14.66;93.83
29941;BME280;16801;53.562;10.038;2022-09-09T02:14:37;100773.38;;;14.85;92.85
29941;BME280;16801;53.562;10.038;2022-09-09T02:18:04;100767.75;;;14.70;93.60
29941;BME280;16801;53.562;10.038;2022-09-09T02:21:29;100765.50;;;14.58;94.44
29941;BME280;16801;53.562;10.038;2022-09-09T02:24:51;100765.34;;;14.59;94.30
29941;BME280;16801;53.562;10.038;2022-09-09T02:28:20;100767.34;;;14.57;94.38
29941;BME280;16801;53.562;10.038;2022-09-09T02:31:45;100765.78;;;14.47;94.65
29941;BME280;16801;53.562;10.038;2022-09-09T02:35:15;100761.03;;;14.40;95.10
29941;BME280;16801;53.562;10.038;2022-09-09T02:38:41;100764.66;;;14.57;94.73
29941;BME280;16801;53.562;10.038;2022-09-09T02:42:08;100768.88;;;14.52;94.82
29941;BME280;16801;53.562;10.038;2022-09-09T02:45:40;100762.78;;;14.58;94.54
29941;BME280;16801;53.562;10.038;2022-09-09T02:49:08;100760.97;;;14.66;93.85
29941;BME280;16801;53.562;10.038;2022-09-09T02:52:42;100761.94;;;14.57;93.89
29941;BME280;16801;53.562;10.038;2022-09-09T02:56:12;100772.97;;;14.56;93.65
29941;BME280;16801;53.562;10.038;2022-09-09T02:59:37;100781.25;;;14.54;93.80
29941;BME280;16801;53.562;10.038;2022-09-09T03:02:58;100771.91;;;14.49;94.02
29941;BME280;16801;53.562;10.038;2022-09-09T03:06:19;100773.66;;;14.58;93.70
29941;BME280;16801;53.562;10.038;2022-09-09T03:09:48;100767.81;;;14.45;94.12
29941;BME280;16801;53.562;10.038;2022-09-09T03:13:10;100767.19;;;14.59;93.24
29941;BME280;16801;53.562;10.038;2022-09-09T03:16:33;100770.44;;;14.62;92.82
29941;BME280;16801;53.562;10.038;2022-09-09T03:19:54;100767.97;;;14.35;94.07
29941;BME280;16801;53.562;10.038;2022-09-09T03:23:17;100766.47;;;14.15;94.78
29941;BME280;16801;53.562;10.038;2022-09-09T03:26:40;100772.06;;;14.13;95.19
29941;BME280;16801;53.562;10.038;2022-09-09T03:30:07;100771.09;;;14.22;94.99
29941;BME280;16801;53.562;10.038;2022-09-09T03:33:28;100759.28;;;14.31;94.28
29941;BME280;16801;53.562;10.038;2022-09-09T03:36:50;100756.34;;;14.25;94.19
29941;BME280;16801;53.562;10.038;2022-09-09T03:40:12;100767.63;;;14.38;93.81
29941;BME280;16801;53.562;10.038;2022-09-09T03:43:37;100765.47;;;14.16;93.98
29941;BME280;16801;53.562;10.038;2022-09-09T03:46:58;100770.28;;;14.04;94.76
29941;BME280;16801;53.562;10.038;2022-09-09T03:50:20;100769.56;;;13.94;94.83
29941;BME280;16801;53.562;10.038;2022-09-09T03:53:42;100773.03;;;13.79;96.13
29941;BME280;16801;53.562;10.038;2022-09-09T03:57:03;100769.69;;;13.85;95.92
29941;BME280;16801;53.562;10.038;2022-09-09T04:00:26;100783.50;;;13.99;95.65
29941;BME280;16801;53.562;10.038;2022-09-09T04:03:48;100773.69;;;14.06;95.35
29941;BME280;16801;53.562;10.038;2022-09-09T04:07:09;100780.56;;;13.93;95.59
29941;BME280;16801;53.562;10.038;2022-09-09T04:10:33;100784.03;;;14.03;95.10
29941;BME280;16801;53.562;10.038;2022-09-09T04:13:55;100782.56;;;14.16;93.97
29941;BME280;16801;53.562;10.038;2022-09-09T04:17:18;100784.66;;;14.22;93.72
29941;BME280;16801;53.562;10.038;2022-09-09T04:20:39;100793.78;;;14.21;94.02
29941;BME280;16801;53.562;10.038;2022-09-09T04:24:01;100787.41;;;14.05;94.43
29941;BME280;16801;53.562;10.038;2022-09-09T04:27:22;100785.88;;;14.02;94.40
29941;BME280;16801;53.562;10.038;2022-09-09T04:30:43;100791.19;;;14.12;93.88
29941;BME280;16801;53.562;10.038;2022-09-09T04:34:07;100797.75;;;14.01;94.22
29941;BME280;16801;53.562;10.038;2022-09-09T04:37:29;100794.22;;;14.09;93.78
29941;BME280;16801;53.562;10.038;2022-09-09T04:40:51;100802.72;;;14.39;93.34
29941;BME280;16801;53.562;10.038;2022-09-09T04:44:14;100794.47;;;14.23;93.13
29941;BME280;16801;53.562;10.038;2022-09-09T04:47:35;100794.47;;;14.23;92.80
29941;BME280;16801;53.562;10.038;2022-09-09T04:50:59;100804.63;;;13.96;93.86
29941;BME280;16801;53.562;10.038;2022-09-09T04:54:21;100811.59;;;13.98;93.73
29941;BME280;16801;53.562;10.038;2022-09-09T04:57:43;100804.81;;;13.94;94.15
29941;BME280;16801;53.562;10.038;2022-09-09T05:01:06;100805.44;;;13.88;94.57
29941;BME280;16801;53.562;10.038;2022-09-09T05:04:28;100812.41;;;13.91;94.55
29941;BME280;16801;53.562;10.038;2022-09-09T05:07:51;100813.47;;;13.98;94.50
29941;BME280;16801;53.562;10.038;2022-09-09T05:11:17;100820.47;;;14.08;93.78
29941;BME280;16801;53.562;10.038;2022-09-09T05:14:39;100809.78;;;14.07;93.57
29941;BME280;16801;53.562;10.038;2022-09-09T05:18:01;100808.81;;;14.08;93.58
29941;BME280;16801;53.562;10.038;2022-09-09T05:21:24;100808.38;;;14.20;93.16
29941;BME280;16801;53.562;10.038;2022-09-09T05:24:49;100812.84;;;14.29;92.44
29941;BME280;16801;53.562;10.038;2022-09-09T05:28:11;100816.28;;;14.39;91.99
29941;BME280;16801;53.562;10.038;2022-09-09T05:31:32;100816.28;;;14.39;91.58
29941;BME280;16801;53.562;10.038;2022-09-09T05:34:56;100821.22;;;14.44;91.70
29941;BME280;16801;53.562;10.038;2022-09-09T05:38:17;100821.78;;;14.56;91.20
29941;BME280;16801;53.562;10.038;2022-09-09T05:41:41;100821.19;;;14.78;90.16
29941;BME280;16801;53.562;10.038;2022-09-09T05:45:03;100838.34;;;14.86;89.66
29941;BME280;16801;53.562;10.038;2022-09-09T05:48:24;100833.38;;;14.74;89.89
29941;BME280;16801;53.562;10.038;2022-09-09T05:51:45;100840.78;;;14.56;90.94
29941;BME280;16801;53.562;10.038;2022-09-09T05:55:08;100846.28;;;14.72;90.66
29941;BME280;16801;53.562;10.038;2022-09-09T05:58:32;100839.09;;;14.63;91.33
29941;BME280;16801;53.562;10.038;2022-09-09T06:01:53;100845.72;;;14.60;91.36
29941;BME280;16801;53.562;10.038;2022-09-09T06:05:19;100848.69;;;14.41;91.71
29941;BME280;16801;53.562;10.038;2022-09-09T06:08:44;100860.13;;;14.61;92.09
29941;BME280;16801;53.562;10.038;2022-09-09T06:12:07;100853.38;;;14.73;91.71
29941;BME280;16801;53.562;10.038;2022-09-09T06:15:31;100861.91;;;14.78;91.28
29941;BME280;16801;53.562;10.038;2022-09-09T06:18:53;100862.59;;;14.80;90.98
29941;BME280;16801;53.562;10.038;2022-09-09T06:22:15;100873.59;;;14.70;91.02
29941;BME280;16801;53.562;10.038;2022-09-09T06:25:36;100866.19;;;14.55;92.09
29941;BME280;16801;53.562;10.038;2022-09-09T06:29:03;100867.81;;;14.73;91.43
29941;BME280;16801;53.562;10.038;2022-09-09T06:32:26;100869.63;;;14.65;91.99
29941;BME280;16801;53.562;10.038;2022-09-09T06:35:51;100873.97;;;14.83;91.97
29941;BME280;16801;53.562;10.038;2022-09-09T06:39:13;100869.03;;;14.79;91.21
29941;BME280;16801;53.562;10.038;2022-09-09T06:42:35;100867.72;;;14.91;91.38
29941;BME280;16801;53.562;10.038;2022-09-09T06:46:21;100866.56;;;14.93;90.79
29941;BME280;16801;53.562;10.038;2022-09-09T06:49:45;100867.09;;;15.05;91.21
29941;BME280;16801;53.562;10.038;2022-09-09T06:53:06;100863.69;;;15.03;90.27
29941;BME280;16801;53.562;10.038;2022-09-09T06:56:28;100873.91;;;15.25;89.85
29941;BME280;16801;53.562;10.038;2022-09-09T06:59:51;100869.03;;;15.37;89.59
29941;BME280;16801;53.562;10.038;2022-09-09T07:03:13;100876.91;;;15.64;88.89
29941;BME280;16801;53.562;10.038;2022-09-09T07:06:37;100869.44;;;15.74;87.67
29941;BME280;16801;53.562;10.038;2022-09-09T07:10:00;100868.75;;;15.88;87.95
29941;BME280;16801;53.562;10.038;2022-09-09T07:13:24;100870.94;;;16.09;87.05
29941;BME280;16801;53.562;10.038;2022-09-09T07:16:46;100872.66;;;15.85;86.91
29941;BME280;16801;53.562;10.038;2022-09-09T07:20:10;100873.53;;;15.70;87.69
29941;BME280;16801;53.562;10.038;2022-09-09T07:23:33;100870.63;;;15.55;88.61
29941;BME280;16801;53.562;10.038;2022-09-09T07:26:55;100876.41;;;15.60;88.98
29941;BME280;16801;53.562;10.038;2022-09-09T07:30:16;100881.16;;;16.07;87.28
29941;BME280;16801;53.562;10.038;2022-09-09T07:33:39;100873.81;;;16.23;85.69
29941;BME280;16801;53.562;10.038;2022-09-09T07:37:01;100875.22;;;16.82;83.80
29941;BME280;16801;53.562;10.038;2022-09-09T07:40:24;100881.06;;;17.10;83.10
29941;BME280;16801;53.562;10.038;2022-09-09T07:43:47;100873.75;;;17.10;82.07
29941;BME280;16801;53.562;10.038;2022-09-09T07:47:09;100879.38;;;17.31;79.76
29941;BME280;16801;53.562;10.038;2022-09-09T07:50:37;100893.16;;;17.07;80.59
29941;BME280;16801;53.562;10.038;2022-09-09T07:54:00;100897.06;;;16.66;83.36
29941;BME280;16801;53.562;10.038;2022-09-09T07:57:25;100893.19;;;16.99;82.42
29941;BME280;16801;53.562;10.038;2022-09-09T08:00:48;100896.84;;;16.75;82.74
29941;BME280;16801;53.562;10.038;2022-09-09T08:04:10;100898.69;;;17.22;80.99
29941;BME280;16801;53.562;10.038;2022-09-09T08:07:36;100911.50;;;17.13;80.71
29941;BME280;16801;53.562;10.038;2022-09-09T08:11:08;100900.41;;;17.53;80.59
29941;BME280;16801;53.562;10.038;2022-09-09T08:14:31;100905.09;;;17.68;79.15
29941;BME280;16801;53.562;10.038;2022-09-09T08:17:52;100902.84;;;17.71;78.38
29941;BME280;16801;53.562;10.038;2022-09-09T08:21:14;100916.47;;;17.71;78.61
29941;BME280;16801;53.562;10.038;2022-09-09T08:24:37;100913.59;;;18.32;77.17
29941;BME280;16801;53.562;10.038;2022-09-09T08:27:58;100909.84;;;18.33;77.31
29941;BME280;16801;53.562;10.038;2022-09-09T08:31:23;100911.31;;;18.36;76.56
29941;BME280;16801;53.562;10.038;2022-09-09T08:34:44;100917.50;;;18.67;75.83
29941;BME280;16801;53.562;10.038;2022-09-09T08:38:09;100916.81;;;18.13;76.60
29941;BME280;16801;53.562;10.038;2022-09-09T08:41:48;100916.53;;;18.08;77.65
29941;BME280;16801;53.562;10.038;2022-09-09T08:45:23;100913.66;;;17.56;80.46
29941;BME280;16801;53.562;10.038;2022-09-09T08:48:56;100920.66;;;17.82;79.01
29941;BME280;16801;53.562;10.038;2022-09-09T08:52:22;100912.38;;;17.98;78.65
29941;BME280;16801;53.562;10.038;2022-09-09T08:55:46;100918.88;;;18.11;78.36
29941;BME280;16801;53.562;10.038;2022-09-09T08:59:11;100915.63;;;18.68;76.31
29941;BME280;16801;53.562;10.038;2022-09-09T09:02:42;100921.66;;;19.07;75.18
29941;BME280;16801;53.562;10.038;2022-09-09T09:06:16;100927.69;;;19.88;72.50
29941;BME280;16801;53.562;10.038;2022-09-09T09:09:46;100924.81;;;20.39;69.75
29941;BME280;16801;53.562;10.038;2022-09-09T09:13:14;100930.72;;;20.98;68.16
29941;BME280;16801;53.562;10.038;2022-09-09T09:16:40;100934.31;;;20.98;66.76
29941;BME280;16801;53.562;10.038;2022-09-09T09:20:11;100930.25;;;20.60;67.85
29941;BME280;16801;53.562;10.038;2022-09-09T09:23:39;100933.41;;;19.22;70.32
29941;BME280;16801;53.562;10.038;2022-09-09T09:27:12;100926.97;;;18.79;70.99
29941;BME280;16801;53.562;10.038;2022-09-09T09:30:38;100939.94;;;19.21;70.91
29941;BME280;16801;53.562;10.038;2022-09-09T09:34:03;100930.66;;;19.51;69.56
29941;BME280;16801;53.562;10.038;2022-09-09T09:37:28;100944.00;;;19.40;70.13
29941;BME280;16801;53.562;10.038;2022-09-09T09:40:53;100942.75;;;18.98;71.46
29941;BME280;16801;53.562;10.038;2022-09-09T09:44:25;100935.34;;;19.57;70.56
29941;BME280;16801;53.562;10.038;2022-09-09T09:47:58;100939.50;;;19.89;69.21
29941;BME280;16801;53.562;10.038;2022-09-09T09:51:21;100930.50;;;19.95;69.66
29941;BME280;16801;53.562;10.038;2022-09-09T09:54:44;100925.53;;;20.05;68.72
29941;BME280;16801;53.562;10.038;2022-09-09T09:58:13;100936.50;;;20.05;69.10
29941;BME280;16801;53.562;10.038;2022-09-09T10:01:36;100938.78;;;20.44;67.55
29941;BME280;16801;53.562;10.038;2022-09-09T10:05:04;100940.97;;;20.27;66.68
29941;BME280;16801;53.562;10.038;2022-09-09T10:08:28;100927.53;;;21.28;65.34
29941;BME280;16801;53.562;10.038;2022-09-09T10:11:55;100935.06;;;21.20;65.51
29941;BME280;16801;53.562;10.038;2022-09-09T10:15:31;100929.63;;;21.26;65.79
29941;BME280;16801;53.562;10.038;2022-09-09T10:18:59;100930.28;;;21.95;63.38
29941;BME280;16801;53.562;10.038;2022-09-09T10:22:26;100924.53;;;21.77;62.46
29941;BME280;16801;53.562;10.038;2022-09-09T10:26:05;100919.72;;;21.25;64.15
29941;BME280;16801;53.562;10.038;2022-09-09T10:33:08;100920.19;;;22.61;60.15
29941;BME280;16801;53.562;10.038;2022-09-09T10:36:30;100919.88;;;20.83;64.09
29941;BME280;16801;53.562;10.038;2022-09-09T10:39:53;100925.38;;;21.78;63.20
29941;BME280;16801;53.562;10.038;2022-09-09T10:43:32;100917.66;;;22.20;60.57
29941;BME280;16801;53.562;10.038;2022-09-09T10:47:26;100910.56;;;21.72;60.23
29941;BME280;16801;53.562;10.038;2022-09-09T10:51:01;100911.50;;;21.86;60.76
29941;BME280;16801;53.562;10.038;2022-09-09T10:54:35;100909.34;;;21.81;61.06
29941;BME280;16801;53.562;10.038;2022-09-09T10:58:02;100909.63;;;22.06;60.35
29941;BME280;16801;53.562;10.038;2022-09-09T11:01:25;100911.06;;;22.80;58.21
29941;BME280;16801;53.562;10.038;2022-09-09T11:04:53;100904.97;;;21.33;61.32
29941;BME280;16801;53.562;10.038;2022-09-09T11:08:18;100917.41;;;22.15;59.42
29941;BME280;16801;53.562;10.038;2022-09-09T11:11:44;100907.34;;;24.32;52.21
29941;BME280;16801;53.562;10.038;2022-09-09T11:15:15;100890.88;;;29.07;42.59
29941;BME280;16801;53.562;10.038;2022-09-09T11:18:39;100897.19;;;29.89;40.18
29941;BME280;16801;53.562;10.038;2022-09-09T11:22:04;100890.63;;;30.63;39.19
29941;BME280;16801;53.562;10.038;2022-09-09T11:25:32;100891.53;;;29.57;39.29
29941;BME280;16801;53.562;10.038;2022-09-09T11:29:12;100904.03;;;24.48;51.49
29941;BME280;16801;53.562;10.038;2022-09-09T11:33:04;100909.84;;;24.40;51.90
29941;BME280;16801;53.562;10.038;2022-09-09T11:36:49;100911.84;;;23.64;54.88
29941;BME280;16801;53.562;10.038;2022-09-09T11:40:19;100906.56;;;23.05;56.29
29941;BME280;16801;53.562;10.038;2022-09-09T11:43:45;100913.19;;;22.26;59.85
29941;BME280;16801;53.562;10.038;2022-09-09T11:47:19;100917.44;;;22.55;59.25
29941;BME280;16801;53.562;10.038;2022-09-09T11:50:41;100922.81;;;21.63;61.46
29941;BME280;16801;53.562;10.038;2022-09-09T11:54:27;100919.44;;;21.74;61.83
29941;BME280;16801;53.562;10.038;2022-09-09T11:57:57;100923.56;;;22.31;60.85
29941;BME280;16801;53.562;10.038;2022-09-09T12:01:29;100916.31;;;23.59;57.19
29941;BME280;16801;53.562;10.038;2022-09-09T12:04:55;100908.13;;;25.43;51.48
29941;BME280;16801;53.562;10.038;2022-09-09T12:08:26;100909.88;;;23.34;56.67
29941;BME280;16801;53.562;10.038;2022-09-09T12:11:49;100912.13;;;22.47;57.54
29941;BME280;16801;53.562;10.038;2022-09-09T12:15:27;100912.44;;;21.52;60.55
29941;BME280;16801;53.562;10.038;2022-09-09T12:18:49;100909.13;;;20.82;63.48
29941;BME280;16801;53.562;10.038;2022-09-09T12:22:16;100915.25;;;20.84;63.43
29941;BME280;16801;53.562;10.038;2022-09-09T12:25:54;100917.13;;;21.17;62.96
29941;BME280;16801;53.562;10.038;2022-09-09T12:29:24;100909.97;;;23.58;57.44
29941;BME280;16801;53.562;10.038;2022-09-09T12:33:00;100920.41;;;22.66;59.20
29941;BME280;16801;53.562;10.038;2022-09-09T12:36:27;100917.44;;;22.55;60.55
29941;BME280;16801;53.562;10.038;2022-09-09T12:39:54;100914.44;;;22.82;59.88
29941;BME280;16801;53.562;10.038;2022-09-09T12:43:17;100912.09;;;24.68;53.43
29941;BME280;16801;53.562;10.038;2022-09-09T12:46:41;100900.41;;;23.67;55.55
29941;BME280;16801;53.562;10.038;2022-09-09T12:50:03;100904.66;;;24.75;52.43
29941;BME280;16801;53.562;10.038;2022-09-09T12:53:27;100899.28;;;22.21;59.20
29941;BME280;16801;53.562;10.038;2022-09-09T12:56:50;100900.03;;;21.15;61.85
29941;BME280;16801;53.562;10.038;2022-09-09T13:00:15;100902.97;;;20.73;64.98
29941;BME280;16801;53.562;10.038;2022-09-09T13:03:42;100916.81;;;20.65;65.49
29941;BME280;16801;53.562;10.038;2022-09-09T13:07:07;100922.75;;;20.20;67.96
29941;BME280;16801;53.562;10.038;2022-09-09T13:10:34;100926.91;;;19.94;70.06
29941;BME280;16801;53.562;10.038;2022-09-09T13:13:59;100920.53;;;19.87;70.63
29941;BME280;16801;53.562;10.038;2022-09-09T13:17:22;100917.25;;;19.99;70.54
29941;BME280;16801;53.562;10.038;2022-09-09T13:20:46;100927.44;;;19.83;71.13
29941;BME280;16801;53.562;10.038;2022-09-09T13:24:25;100926.19;;;19.65;71.33
29941;BME280;16801;53.562;10.038;2022-09-09T13:27:58;100929.34;;;19.33;73.32
29941;BME280;16801;53.562;10.038;2022-09-09T13:31:22;100943.25;;;19.17;74.77
29941;BME280;16801;53.562;10.038;2022-09-09T13:34:51;100946.13;;;19.15;75.51
29941;BME280;16801;53.562;10.038;2022-09-09T13:38:13;100957.75;;;19.02;77.57
29941;BME280;16801;53.562;10.038;2022-09-09T13:41:36;100962.63;;;18.63;80.52
29941;BME280;16801;53.562;10.038;2022-09-09T13:45:14;100975.00;;;18.14;81.83
29941;BME280;16801;53.562;10.038;2022-09-09T13:48:36;100977.06;;;18.12;80.74
29941;BME280;16801;53.562;10.038;2022-09-09T13:52:04;100974.78;;;18.38;79.46
29941;BME280;16801;53.562;10.038;2022-09-09T13:55:28;100974.91;;;18.45;80.26
29941;BME280;16801;53.562;10.038;2022-09-09T13:58:50;100973.16;;;18.52;80.01
29941;BME280;16801;53.562;10.038;2022-09-09T14:02:12;100966.31;;;18.33;81.69
29941;BME280;16801;53.562;10.038;2022-09-09T14:05:33;100961.63;;;18.42;81.40
29941;BME280;16801;53.562;10.038;2022-09-09T14:08:55;100943.81;;;18.31;82.53
29941;BME280;16801;53.562;10.038;2022-09-09T14:12:16;100941.72;;;18.33;82.08
29941;BME280;16801;53.562;10.038;2022-09-09T14:15:37;100942.59;;;18.33;82.21
29941;BME280;16801;53.562;10.038;2022-09-09T14:19:00;100942.88;;;18.38;81.55
29941;BME280;16801;53.562;10.038;2022-09-09T14:22:21;100942.09;;;18.30;82.12
29941;BME280;16801;53.562;10.038;2022-09-09T14:25:43;100942.13;;;18.07;83.54
29941;BME280;16801;53.562;10.038;2022-09-09T14:29:04;100936.53;;;18.01;82.53
29941;BME280;16801;53.562;10.038;2022-09-09T14:32:25;100941.09;;;18.08;81.64
29941;BME280;16801;53.562;10.038;2022-09-09T14:35:48;100937.38;;;18.24;81.29
29941;BME280;16801;53.562;10.038;2022-09-09T14:39:16;100933.81;;;18.01;81.24
29941;BME280;16801;53.562;10.038;2022-09-09T14:42:36;100932.28;;;18.21;80.86
29941;BME280;16801;53.562;10.038;2022-09-09T14:45:57;100935.72;;;18.38;79.74
29941;BME280;16801;53.562;10.038;2022-09-09T14:49:19;100935.84;;;18.21;79.16
29941;BME280;16801;53.562;10.038;2022-09-09T14:52:41;100935.53;;;18.02;79.30
29941;BME280;16801;53.562;10.038;2022-09-09T14:56:07;100935.03;;;17.98;81.21
29941;BME280;16801;53.562;10.038;2022-09-09T14:59:28;100939.38;;;18.07;80.01
29941;BME280;16801;53.562;10.038;2022-09-09T15:02:51;100941.44;;;18.05;80.84
29941;BME280;16801;53.562;10.038;2022-09-09T15:06:14;100941.81;;;18.25;80.19
29941;BME280;16801;53.562;10.038;2022-09-09T15:09:36;100942.03;;;18.15;80.52
29941;BME280;16801;53.562;10.038;2022-09-09T15:12:57;100942.34;;;18.20;80.95
29941;BME280;16801;53.562;10.038;2022-09-09T15:16:18;100942.97;;;18.08;81.94
29941;BME280;16801;53.562;10.038;2022-09-09T15:19:39;100942.97;;;18.08;82.52
29941;BME280;16801;53.562;10.038;2022-09-09T15:23:01;100939.19;;;18.09;82.75
29941;BME280;16801;53.562;10.038;2022-09-09T15:26:24;100934.09;;;18.28;81.65
29941;BME280;16801;53.562;10.038;2022-09-09T15:29:45;100942.31;;;18.43;79.77
29941;BME280;16801;53.562;10.038;2022-09-09T15:33:07;100939.34;;;18.30;78.39
29941;BME280;16801;53.562;10.038;2022-09-09T15:36:31;100934.53;;;18.17;79.11
29941;BME280;16801;53.562;10.038;2022-09-09T15:39:52;100919.22;;;18.31;77.53
29941;BME280;16801;53.562;10.038;2022-09-09T15:43:14;100924.13;;;18.58;76.98
29941;BME280;16801;53.562;10.038;2022-09-09T15:46:36;100930.81;;;18.70;75.93
29941;BME280;16801;53.562;10.038;2022-09-09T15:49:58;100934.84;;;18.00;78.06
29941;BME280;16801;53.562;10.038;2022-09-09T15:53:20;100936.88;;;17.83;78.46
29941;BME280;16801;53.562;10.038;2022-09-09T15:56:41;100932.84;;;17.71;78.88
29941;BME280;16801;53.562;10.038;2022-09-09T16:00:04;100929.56;;;18.21;77.74
29941;BME280;16801;53.562;10.038;2022-09-09T16:03:26;100927.66;;;18.44;76.84
29941;BME280;16801;53.562;10.038;2022-09-09T16:06:46;100924.56;;;18.62;76.96
29941;BME280;16801;53.562;10.038;2022-09-09T16:10:08;100924.47;;;18.70;75.75
29941;BME280;16801;53.562;10.038;2022-09-09T16:13:33;100921.34;;;19.31;75.00
29941;BME280;16801;53.562;10.038;2022-09-09T16:16:55;100917.59;;;19.68;73.56
29941;BME280;16801;53.562;10.038;2022-09-09T16:20:16;100909.84;;;19.92;72.82
29941;BME280;16801;53.562;10.038;2022-09-09T16:23:38;100905.50;;;19.41;74.40
29941;BME280;16801;53.562;10.038;2022-09-09T16:26:59;100908.78;;;19.51;75.35
29941;BME280;16801;53.562;10.038;2022-09-09T16:30:22;100908.69;;;19.45;74.64
29941;BME280;16801;53.562;10.038;2022-09-09T16:33:45;100916.97;;;19.51;74.87
29941;BME280;16801;53.562;10.038;2022-09-09T16:37:07;100891.72;;;20.13;72.58
29941;BME280;16801;53.562;10.038;2022-09-09T16:40:28;100897.19;;;20.61;70.33
29941;BME280;16801;53.562;10.038;2022-09-09T16:43:52;100901.09;;;20.46;71.27
29941;BME280;16801;53.562;10.038;2022-09-09T16:47:13;100907.38;;;20.19;70.29
29941;BME280;16801;53.562;10.038;2022-09-09T16:50:35;100914.94;;;20.17;70.60
29941;BME280;16801;53.562;10.038;2022-09-09T16:53:58;100924.66;;;19.77;72.09
29941;BME280;16801;53.562;10.038;2022-09-09T16:57:19;100927.63;;;19.61;72.49
29941;BME280;16801;53.562;10.038;2022-09-09T17:00:40;100924.44;;;19.28;73.92
29941;BME280;16801;53.562;10.038;2022-09-09T17:04:03;100925.31;;;19.29;73.61
29941;BME280;16801;53.562;10.038;2022-09-09T17:07:27;100919.84;;;19.43;73.91
29941;BME280;16801;53.562;10.038;2022-09-09T17:10:48;100922.50;;;19.37;73.72
29941;BME280;16801;53.562;10.038;2022-09-09T17:14:14;100928.38;;;19.04;74.90
29941;BME280;16801;53.562;10.038;2022-09-09T17:17:35;100924.94;;;19.02;75.62
29941;BME280;16801;53.562;10.038;2022-09-09T17:21:02;100913.66;;;18.91;76.21
29941;BME280;16801;53.562;10.038;2022-09-09T17:24:25;100919.78;;;18.93;76.79
29941;BME280;16801;53.562;10.038;2022-09-09T17:27:46;100913.28;;;18.94;76.20
29941;BME280;16801;53.562;10.038;2022-09-09T17:31:09;100912.25;;;18.80;76.79
29941;BME280;16801;53.562;10.038;2022-09-09T17:34:31;100920.19;;;18.75;76.82
29941;BME280;16801;53.562;10.038;2022-09-09T17:37:52;100911.00;;;18.54;77.76
29941;BME280;16801;53.562;10.038;2022-09-09T17:41:16;100924.56;;;18.62;77.41
29941;BME280;16801;53.562;10.038;2022-09-09T17:44:38;100928.53;;;18.59;77.84